To NAV CANADA Home Page Login to a new session Search on AWWS site Disclaimer Vers la page française équivalente Tips FAQ What's new on the site To the Forecasts and Observations / NOTAM section To "File a Flight Plan" website Publications and other links Update of the User's profile FIC Telephone Numbers My Weather Data Folder Route Weather Data Regional Weather Data Local Weather Data To the Forecasts and Observations / NOTAM section
Request Generated 08/19/2022 at 02:09:00 UTC . Weather information available at that time is displayed.

METAR/TAF

KAPUSKASING/ON    

METAR CYYU 190200Z 14003KT 15SM SCT110 BKN120 19/17 A2985 RMK AC3AC4 SLP113 DENSITY ALT 1600FT=
METAR CYYU 190100Z 19003KT 15SM FEW040CB SCT110 BKN120 21/16 A2985 RMK CB1AC4AC3 CB TR CB NW SLP112 DENSITY ALT 1700FT=
METAR CYYU 190000Z 23004KT 15SM VCSH FEW040CB SCT100 BKN110 BKN140 22/16 A2984 RMK CB1AC3AC2AC2 CB TR SH SW CB TOPS NE-SE SLP108 DEN
SITY ALT 1800FT=

TAF CYYU 190140Z 1902/1914 24005KT P6SM BKN040
FM190800 19005KT 6SM BR SCT006 OVC025 TEMPO 1908/1914 2SM BR
BKN006 OVC025
RMK NXT FCST BY 190800Z
Your time UTC time
Weather data provided by Environment Canada and NAV CANADA